Disclaimer

Please do not use the information listed here in-flight or in-navigation, as they are not provided to us by the airports but are provided by volunteers, so they might be outdated.

Search


Regions


Airport information page

Radio informations:
Tower (TWR) - 130.8 MHz

Airport informations:
Latitude: 56° 41' 07.91" N
Longitude: 016° 17' 15.28" E
Elevation: 17 feet - 5 meters
Operating hours: Remarks
Operating agency: Civil government, landing fees and diplomatic clearance may be required
Timezone: UTC+1(+2DT) - Last Sunday in March to last Sunday in October
Fuel: Jet A1, without icing nhibitor.

100/130 MIL Spec, low lead, aviation gasoline (BLUE)

Runway information:
05/23 - 2179 x 131 feet< - >664 x 40 meters
16/34 - 6726 x 148 feet< - >2050 x 45 meters

Recent METARs:
ESMQ 202250Z AUTO 05010KT 9999 OVC031/// 03/01 Q1030
ESMQ 202320Z AUTO 05010KT 9999 FEW023/// BKN028/// 04/01 Q1030
ESMQ 202350Z AUTO 06008KT 9999 FEW012/// BKN024/// 04/01 Q1030

Airport on the map: